Time;durP1;ratioP1;P1;durP2;ratioP2;P2;SDS_P1;SDS_P2;PMS_P1;PMS_P2;Temp;Humidity;BMP_temperature;BMP_pressure;BME280_temperature;BME280_humidity;BME280_pressure;Samples;Min_cycle;Max_cycle;Signal;HPM_P1;HPM_P2
2023/05/09 00:00:19;;;;;;;55.00;37.97;;;;;;;;;;5072557;28;20072;-75
2023/05/09 00:02:45;;;;;;;75.47;43.88;;;;;;;;;;5089880;28;20157;-75
2023/05/09 00:05:11;;;;;;;81.78;46.28;;;;;;;;;;5054324;28;20083;-76
2023/05/09 00:07:38;;;;;;;86.20;47.08;;;;;;;;;;5079907;28;20756;-76
2023/05/09 00:10:04;;;;;;;92.05;48.25;;;;;;;;;;5076412;28;20488;-77
2023/05/09 00:12:30;;;;;;;86.53;46.25;;;;;;;;;;5078151;28;20037;-75
2023/05/09 00:14:56;;;;;;;95.07;48.25;;;;;;;;;;5091723;28;20456;-75
2023/05/09 00:17:22;;;;;;;104.22;51.10;;;;;;;;;;5080295;28;20090;-75
2023/05/09 00:19:49;;;;;;;106.85;51.53;;;;;;;;;;5064060;28;20033;-75
2023/05/09 00:22:16;;;;;;;115.53;54.40;;;;;;;;;;5072906;28;20508;-75
2023/05/09 00:24:42;;;;;;;105.93;51.97;;;;;;;;;;5076830;28;20097;-75
2023/05/09 00:27:09;;;;;;;106.80;53.63;;;;;;;;;;5097604;28;20051;-75
2023/05/09 00:29:35;;;;;;;119.50;54.42;;;;;;;;;;5064537;28;20078;-75
2023/05/09 00:32:01;;;;;;;118.68;54.80;;;;;;;;;;5087002;28;20044;-75
2023/05/09 00:34:27;;;;;;;122.65;54.42;;;;;;;;;;5063630;28;20112;-75
2023/05/09 00:36:53;;;;;;;113.72;55.33;;;;;;;;;;5069876;28;20036;-75
2023/05/09 00:39:20;;;;;;;128.75;57.13;;;;;;;;;;5062267;28;20043;-76
2023/05/09 00:41:45;;;;;;;104.05;53.53;;;;;;;;;;5072530;28;20498;-76
2023/05/09 00:44:11;;;;;;;104.00;53.08;;;;;;;;;;5075025;28;20079;-74
2023/05/09 00:46:39;;;;;;;125.35;55.97;;;;;;;;;;5076410;28;20057;-75
2023/05/09 00:49:05;;;;;;;132.52;55.38;;;;;;;;;;5047667;28;20055;-75
2023/05/09 00:51:31;;;;;;;135.63;56.67;;;;;;;;;;5069249;28;20040;-75
2023/05/09 00:53:57;;;;;;;106.47;51.83;;;;;;;;;;5076933;28;20122;-75
2023/05/09 00:56:24;;;;;;;103.57;50.88;;;;;;;;;;5076000;28;20072;-75
2023/05/09 00:58:50;;;;;;;126.68;56.03;;;;;;;;;;5090446;27;20122;-76
2023/05/09 01:01:16;;;;;;;104.63;51.97;;;;;;;;;;5072180;28;20108;-75
2023/05/09 01:03:42;;;;;;;104.68;51.53;;;;;;;;;;5103969;27;20036;-75
2023/05/09 01:06:18;;;;;;;126.85;55.55;;;;;;;;;;5112774;27;20039;-74
2023/05/09 01:09:00;;;;;;;110.57;51.92;;;;;;;;;;5090342;27;20129;-76
2023/05/09 01:11:38;;;;;;;118.82;55.40;;;;;;;;;;5087108;28;20499;-75
2023/05/09 01:14:07;;;;;;;104.75;51.10;;;;;;;;;;5082267;28;20035;-75
2023/05/09 01:16:47;;;;;;;117.68;55.05;;;;;;;;;;5067714;28;20044;-76
2023/05/09 01:19:32;;;;;;;113.13;53.92;;;;;;;;;;5068803;28;20055;-77
2023/05/09 01:21:59;;;;;;;113.43;54.35;;;;;;;;;;5102599;27;20032;-75
2023/05/09 01:24:33;;;;;;;123.03;54.63;;;;;;;;;;5082994;28;20037;-75
2023/05/09 01:27:15;;;;;;;117.07;53.33;;;;;;;;;;5074577;28;20043;-75
2023/05/09 01:29:46;;;;;;;121.30;55.88;;;;;;;;;;5065376;28;20052;-76
2023/05/09 01:32:32;;;;;;;112.90;53.03;;;;;;;;;;5063887;28;20056;-78
2023/05/09 01:35:03;;;;;;;89.07;48.03;;;;;;;;;;5081530;28;20050;-77
2023/05/09 01:37:30;;;;;;;102.15;51.63;;;;;;;;;;5068106;28;20079;-77
2023/05/09 01:40:00;;;;;;;116.88;54.95;;;;;;;;;;5106392;27;20048;-77
2023/05/09 01:42:28;;;;;;;111.78;53.50;;;;;;;;;;5073613;28;20106;-78
2023/05/09 01:44:54;;;;;;;94.90;48.85;;;;;;;;;;5068678;28;20032;-76
2023/05/09 01:47:20;;;;;;;96.18;49.85;;;;;;;;;;5070967;28;20048;-75
2023/05/09 01:49:47;;;;;;;118.90;53.63;;;;;;;;;;5103515;28;20097;-75
2023/05/09 01:52:14;;;;;;;111.63;54.40;;;;;;;;;;5079595;28;20499;-76
2023/05/09 01:54:41;;;;;;;110.95;52.63;;;;;;;;;;5073821;28;20070;-75
2023/05/09 01:57:07;;;;;;;106.93;52.67;;;;;;;;;;5113183;27;20819;-75
2023/05/09 01:59:34;;;;;;;107.10;52.25;;;;;;;;;;5072549;28;20039;-75
2023/05/09 02:02:01;;;;;;;93.20;49.13;;;;;;;;;;5081176;28;20070;-77
2023/05/09 02:04:28;;;;;;;112.40;52.08;;;;;;;;;;5074816;28;20090;-76
2023/05/09 02:06:54;;;;;;;99.60;49.40;;;;;;;;;;5065123;28;20400;-76
2023/05/09 02:09:20;;;;;;;98.63;50.05;;;;;;;;;;5082408;28;20062;-77
2023/05/09 02:11:46;;;;;;;95.65;48.38;;;;;;;;;;5080637;28;20044;-77
2023/05/09 02:14:13;;;;;;;90.65;47.70;;;;;;;;;;5082810;28;20036;-76
2023/05/09 02:16:39;;;;;;;92.55;47.45;;;;;;;;;;5053917;28;20063;-76
2023/05/09 02:19:05;;;;;;;93.60;49.20;;;;;;;;;;5063249;28;20051;-76
2023/05/09 02:21:31;;;;;;;120.47;54.35;;;;;;;;;;5080993;28;20059;-76
2023/05/09 02:23:57;;;;;;;97.88;48.88;;;;;;;;;;5080446;28;20028;-76
2023/05/09 02:26:24;;;;;;;139.05;58.13;;;;;;;;;;5110630;27;20040;-77
2023/05/09 02:28:51;;;;;;;140.05;60.40;;;;;;;;;;5085146;28;20457;-75
2023/05/09 02:31:18;;;;;;;137.82;56.10;;;;;;;;;;5079506;28;20040;-75
2023/05/09 02:33:45;;;;;;;173.07;65.82;;;;;;;;;;5083479;28;20093;-74
2023/05/09 02:36:11;;;;;;;193.43;67.88;;;;;;;;;;5073894;28;20423;-76
2023/05/09 02:38:37;;;;;;;177.95;66.75;;;;;;;;;;5065008;28;20503;-75
2023/05/09 02:41:03;;;;;;;156.27;62.80;;;;;;;;;;5072379;28;20051;-75
2023/05/09 02:43:29;;;;;;;174.75;65.50;;;;;;;;;;5078057;28;20406;-76
2023/05/09 02:45:55;;;;;;;185.50;66.07;;;;;;;;;;5066907;28;20109;-76
2023/05/09 02:48:22;;;;;;;173.55;63.88;;;;;;;;;;5066573;28;20048;-75
2023/05/09 02:50:48;;;;;;;181.35;64.00;;;;;;;;;;5077255;28;20051;-76
2023/05/09 02:53:14;;;;;;;197.02;66.20;;;;;;;;;;5078434;28;20041;-75
2023/05/09 02:55:40;;;;;;;139.95;59.15;;;;;;;;;;5082330;28;20055;-75
2023/05/09 02:58:06;;;;;;;136.98;58.55;;;;;;;;;;5087017;28;20122;-75
2023/05/09 03:00:31;;;;;;;180.85;64.72;;;;;;;;;;5080119;28;20045;-75
2023/05/09 03:02:58;;;;;;;160.20;59.08;;;;;;;;;;5085766;28;20163;-76
2023/05/09 03:05:24;;;;;;;194.68;67.28;;;;;;;;;;5086277;28;20182;-75
2023/05/09 03:07:50;;;;;;;191.45;66.07;;;;;;;;;;5082987;28;20130;-76
2023/05/09 03:10:16;;;;;;;216.48;66.57;;;;;;;;;;5078618;28;20411;-75
2023/05/09 03:12:42;;;;;;;195.10;66.55;;;;;;;;;;5064726;28;20040;-76
2023/05/09 03:15:09;;;;;;;209.85;71.30;;;;;;;;;;5064652;28;20036;-76
2023/05/09 03:17:35;;;;;;;203.27;70.75;;;;;;;;;;5094824;28;20061;-75
2023/05/09 03:20:04;;;;;;;189.20;67.85;;;;;;;;;;5104234;27;20517;-75
2023/05/09 03:22:30;;;;;;;180.18;65.20;;;;;;;;;;5087311;28;20619;-75
2023/05/09 03:24:56;;;;;;;195.27;66.93;;;;;;;;;;5081928;28;20051;-74
2023/05/09 03:27:22;;;;;;;179.95;67.13;;;;;;;;;;5113890;27;20822;-76
2023/05/09 03:29:48;;;;;;;160.85;63.05;;;;;;;;;;5082406;28;20041;-75
2023/05/09 03:32:14;;;;;;;171.60;66.15;;;;;;;;;;5080524;28;20093;-75
2023/05/09 03:34:40;;;;;;;138.40;59.90;;;;;;;;;;5084882;28;20056;-74
2023/05/09 03:37:06;;;;;;;172.57;65.43;;;;;;;;;;5078578;28;20039;-75
2023/05/09 03:39:32;;;;;;;154.88;63.83;;;;;;;;;;5064861;28;20036;-75
2023/05/09 03:41:58;;;;;;;131.68;57.88;;;;;;;;;;5062648;28;20044;-75
2023/05/09 03:44:25;;;;;;;154.00;61.30;;;;;;;;;;5076329;28;20048;-76
2023/05/09 03:46:51;;;;;;;129.48;57.15;;;;;;;;;;5081935;28;20058;-74
2023/05/09 03:49:17;;;;;;;103.88;52.05;;;;;;;;;;5071912;28;20040;-76
2023/05/09 03:51:43;;;;;;;86.93;46.50;;;;;;;;;;5071660;28;20036;-75
2023/05/09 03:54:09;;;;;;;76.47;45.88;;;;;;;;;;5075960;28;20081;-75
2023/05/09 03:56:35;;;;;;;69.93;42.92;;;;;;;;;;5072670;28;20056;-76
2023/05/09 03:59:01;;;;;;;56.40;37.85;;;;;;;;;;5068428;28;20029;-75
2023/05/09 04:01:27;;;;;;;54.22;36.60;;;;;;;;;;5069238;28;20048;-76
2023/05/09 04:03:53;;;;;;;54.15;37.13;;;;;;;;;;5083022;28;20050;-75
2023/05/09 04:06:19;;;;;;;48.72;34.42;;;;;;;;;;5095753;28;20074;-75
2023/05/09 04:08:45;;;;;;;48.33;34.17;;;;;;;;;;5077890;28;20072;-76
2023/05/09 04:11:11;;;;;;;46.05;33.53;;;;;;;;;;5073707;28;20079;-75
2023/05/09 04:13:37;;;;;;;47.30;33.65;;;;;;;;;;5088124;28;20057;-75
2023/05/09 04:16:03;;;;;;;48.55;35.10;;;;;;;;;;5085038;28;20063;-75
2023/05/09 04:18:30;;;;;;;49.35;34.03;;;;;;;;;;5079257;28;20166;-75
2023/05/09 04:20:56;;;;;;;50.85;35.95;;;;;;;;;;5069176;28;20051;-75
2023/05/09 04:23:22;;;;;;;49.80;35.00;;;;;;;;;;5079487;28;21781;-75
2023/05/09 04:25:50;;;;;;;46.53;34.70;;;;;;;;;;5082984;28;20036;-75
2023/05/09 04:28:16;;;;;;;47.23;33.50;;;;;;;;;;5069873;28;20070;-76
2023/05/09 04:30:42;;;;;;;43.13;32.03;;;;;;;;;;5078762;28;20302;-77
2023/05/09 04:33:08;;;;;;;41.95;31.80;;;;;;;;;;5066970;28;20091;-75
2023/05/09 04:35:34;;;;;;;42.75;32.88;;;;;;;;;;5073974;28;20050;-77
2023/05/09 04:38:00;;;;;;;44.95;32.30;;;;;;;;;;5084545;28;20500;-75
2023/05/09 04:40:26;;;;;;;38.10;29.45;;;;;;;;;;5084576;28;20093;-74
2023/05/09 04:42:52;;;;;;;38.78;29.50;;;;;;;;;;5060697;28;20039;-75
2023/05/09 04:45:18;;;;;;;38.25;28.90;;;;;;;;;;5074891;28;21709;-74
2023/05/09 04:47:44;;;;;;;37.58;27.85;;;;;;;;;;5110199;27;20062;-75
2023/05/09 04:50:10;;;;;;;33.10;26.60;;;;;;;;;;5062278;28;20051;-77
2023/05/09 04:52:36;;;;;;;34.80;26.60;;;;;;;;;;5085406;28;20098;-76
2023/05/09 04:55:02;;;;;;;32.30;26.23;;;;;;;;;;5073199;28;20076;-76
2023/05/09 04:57:28;;;;;;;36.63;27.55;;;;;;;;;;5088749;28;20056;-77
2023/05/09 04:59:54;;;;;;;36.28;27.92;;;;;;;;;;5076151;28;20577;-76
2023/05/09 05:02:21;;;;;;;36.72;27.05;;;;;;;;;;5074740;28;20046;-76
2023/05/09 05:04:47;;;;;;;34.15;26.33;;;;;;;;;;5081090;28;20581;-76
2023/05/09 05:07:13;;;;;;;35.72;27.23;;;;;;;;;;5088277;28;20127;-75
2023/05/09 05:09:39;;;;;;;35.75;26.85;;;;;;;;;;5073004;28;20143;-75
2023/05/09 05:12:06;;;;;;;34.65;26.92;;;;;;;;;;5068638;28;20408;-75
2023/05/09 05:14:32;;;;;;;32.70;26.85;;;;;;;;;;5098717;28;20052;-74
2023/05/09 05:16:58;;;;;;;32.72;27.35;;;;;;;;;;5075143;28;20142;-75
2023/05/09 05:19:24;;;;;;;33.20;26.98;;;;;;;;;;5083313;28;21320;-74
2023/05/09 05:21:50;;;;;;;37.65;28.25;;;;;;;;;;5076707;28;20044;-74
2023/05/09 05:24:16;;;;;;;35.00;27.00;;;;;;;;;;5081334;28;20052;-74
2023/05/09 05:26:42;;;;;;;33.25;27.83;;;;;;;;;;5070801;28;20036;-75
2023/05/09 05:29:08;;;;;;;36.60;27.80;;;;;;;;;;5078945;28;20084;-75
2023/05/09 05:31:35;;;;;;;33.47;26.90;;;;;;;;;;5074377;28;20121;-75
2023/05/09 05:34:01;;;;;;;35.03;27.15;;;;;;;;;;5073080;28;20040;-75
2023/05/09 05:36:27;;;;;;;33.95;27.13;;;;;;;;;;5068293;28;20147;-75
2023/05/09 05:38:53;;;;;;;33.35;27.50;;;;;;;;;;5057835;28;20097;-75
2023/05/09 05:41:19;;;;;;;32.60;27.75;;;;;;;;;;5073780;28;20047;-74
2023/05/09 05:43:45;;;;;;;33.75;27.92;;;;;;;;;;5075332;28;20059;-75
2023/05/09 05:46:11;;;;;;;35.75;27.77;;;;;;;;;;5059663;28;20586;-75
2023/05/09 05:48:37;;;;;;;34.75;27.75;;;;;;;;;;5092382;28;20100;-75
2023/05/09 05:51:03;;;;;;;32.22;27.27;;;;;;;;;;5070374;28;20085;-76
2023/05/09 05:53:29;;;;;;;32.80;27.05;;;;;;;;;;5093401;28;20043;-76
2023/05/09 05:55:55;;;;;;;37.05;28.13;;;;;;;;;;5071766;28;20065;-77
2023/05/09 05:58:21;;;;;;;33.13;28.17;;;;;;;;;;5094481;27;20084;-76
2023/05/09 06:00:47;;;;;;;34.85;28.02;;;;;;;;;;5078153;28;20041;-77
2023/05/09 06:03:13;;;;;;;35.13;27.98;;;;;;;;;;5078698;28;20128;-76
2023/05/09 06:05:43;;;;;;;35.47;28.98;;;;;;;;;;5089498;28;20052;-77
2023/05/09 06:08:09;;;;;;;37.28;28.75;;;;;;;;;;5078187;28;20047;-76
2023/05/09 06:10:35;;;;;;;35.60;27.98;;;;;;;;;;5074586;28;20047;-76
2023/05/09 06:13:01;;;;;;;37.33;29.35;;;;;;;;;;5079646;28;20487;-77
2023/05/09 06:15:27;;;;;;;35.75;28.70;;;;;;;;;;5058633;28;20050;-76
2023/05/09 06:17:53;;;;;;;36.90;29.48;;;;;;;;;;5081412;28;20040;-78
2023/05/09 06:20:19;;;;;;;34.30;28.55;;;;;;;;;;5074638;28;20036;-76
2023/05/09 06:22:45;;;;;;;38.97;30.60;;;;;;;;;;5097995;27;20043;-76
2023/05/09 06:25:11;;;;;;;35.13;29.42;;;;;;;;;;5078354;28;20508;-76
2023/05/09 06:27:37;;;;;;;32.88;27.88;;;;;;;;;;5085423;27;20041;-76
2023/05/09 06:30:04;;;;;;;36.47;29.08;;;;;;;;;;5092009;27;20044;-76
2023/05/09 06:32:30;;;;;;;36.70;29.10;;;;;;;;;;5066452;28;20101;-77
2023/05/09 06:34:56;;;;;;;33.63;29.50;;;;;;;;;;5072984;28;20052;-76
2023/05/09 06:37:21;;;;;;;36.58;29.38;;;;;;;;;;5075002;28;20110;-76
2023/05/09 06:39:49;;;;;;;35.63;29.92;;;;;;;;;;5106079;27;20051;-74
2023/05/09 06:42:15;;;;;;;35.05;28.83;;;;;;;;;;5079282;28;20109;-76
2023/05/09 06:44:42;;;;;;;37.50;28.92;;;;;;;;;;5106682;27;20040;-76
2023/05/09 06:47:08;;;;;;;37.10;29.77;;;;;;;;;;5083867;28;20060;-76
2023/05/09 06:49:34;;;;;;;41.05;30.58;;;;;;;;;;5076136;28;20101;-76
2023/05/09 06:52:00;;;;;;;37.95;29.83;;;;;;;;;;5091340;28;20043;-75
2023/05/09 06:54:26;;;;;;;40.72;31.88;;;;;;;;;;5085806;28;20044;-75
2023/05/09 06:56:52;;;;;;;45.30;32.28;;;;;;;;;;5106432;27;20035;-76
2023/05/09 06:59:18;;;;;;;44.88;33.42;;;;;;;;;;5075687;28;20036;-76
2023/05/09 07:01:44;;;;;;;50.78;36.03;;;;;;;;;;5068083;28;20052;-77
2023/05/09 07:04:10;;;;;;;51.60;36.13;;;;;;;;;;5076450;28;20108;-76
2023/05/09 07:06:36;;;;;;;57.72;39.22;;;;;;;;;;5101044;27;20473;-75
2023/05/09 07:09:03;;;;;;;73.22;44.50;;;;;;;;;;5109823;27;20139;-75
2023/05/09 07:11:33;;;;;;;67.20;40.53;;;;;;;;;;5106046;27;20163;-75
2023/05/09 07:13:59;;;;;;;68.30;41.38;;;;;;;;;;5067818;28;20066;-76
2023/05/09 07:16:28;;;;;;;72.45;43.35;;;;;;;;;;5106791;27;20590;-76
2023/05/09 07:18:54;;;;;;;72.85;44.60;;;;;;;;;;5085725;28;20036;-76
2023/05/09 07:21:20;;;;;;;80.13;48.00;;;;;;;;;;5080837;28;20047;-75
2023/05/09 07:23:46;;;;;;;78.38;45.63;;;;;;;;;;5082395;28;20194;-76
2023/05/09 07:26:12;;;;;;;82.28;44.65;;;;;;;;;;5109014;27;20046;-75
2023/05/09 07:28:38;;;;;;;83.63;48.28;;;;;;;;;;5074932;28;20056;-75
2023/05/09 07:31:05;;;;;;;81.13;46.60;;;;;;;;;;5075183;28;20837;-76
2023/05/09 07:33:31;;;;;;;86.13;47.70;;;;;;;;;;5073861;28;20874;-76
2023/05/09 07:36:00;;;;;;;84.65;45.58;;;;;;;;;;5080165;28;20074;-76
2023/05/09 07:38:26;;;;;;;79.97;45.67;;;;;;;;;;5082388;28;20322;-77
2023/05/09 07:40:52;;;;;;;78.57;45.40;;;;;;;;;;5075825;28;20076;-75
2023/05/09 07:43:18;;;;;;;72.22;43.47;;;;;;;;;;5102355;27;20040;-75
2023/05/09 07:45:45;;;;;;;75.25;44.85;;;;;;;;;;5103910;27;20036;-77
2023/05/09 07:48:11;;;;;;;74.35;44.63;;;;;;;;;;5103745;27;20097;-75
2023/05/09 07:50:37;;;;;;;80.45;45.15;;;;;;;;;;5058341;28;20101;-75
2023/05/09 07:53:03;;;;;;;73.00;44.10;;;;;;;;;;5078475;28;20055;-76
2023/05/09 07:55:29;;;;;;;72.43;43.22;;;;;;;;;;5067757;28;20048;-75
2023/05/09 07:57:55;;;;;;;78.47;43.58;;;;;;;;;;5106270;27;20067;-75
2023/05/09 08:00:22;;;;;;;77.22;44.35;;;;;;;;;;5062959;28;20048;-75
2023/05/09 08:02:52;;;;;;;70.75;44.08;;;;;;;;;;5072437;28;20044;-75
2023/05/09 08:05:18;;;;;;;76.10;45.17;;;;;;;;;;5061331;28;20435;-76
2023/05/09 08:07:45;;;;;;;68.60;43.40;;;;;;;;;;5078873;28;20076;-76
2023/05/09 08:10:11;;;;;;;68.47;41.97;;;;;;;;;;5110386;27;20063;-76
2023/05/09 08:12:37;;;;;;;73.00;43.08;;;;;;;;;;5096945;27;20131;-76
2023/05/09 08:15:03;;;;;;;64.75;40.97;;;;;;;;;;5076689;28;20049;-76
2023/05/09 08:17:29;;;;;;;66.22;41.28;;;;;;;;;;5074179;28;20046;-75
2023/05/09 08:19:55;;;;;;;69.63;42.63;;;;;;;;;;5076671;28;20487;-77
2023/05/09 08:22:21;;;;;;;67.05;43.38;;;;;;;;;;5074232;28;20078;-77
2023/05/09 08:24:47;;;;;;;65.70;41.65;;;;;;;;;;5080412;28;20586;-76
2023/05/09 08:27:14;;;;;;;69.28;41.85;;;;;;;;;;5075061;28;20046;-74
2023/05/09 08:29:40;;;;;;;67.07;42.08;;;;;;;;;;5068469;28;20052;-75
2023/05/09 08:32:06;;;;;;;65.32;41.20;;;;;;;;;;5081274;28;20035;-74
2023/05/09 08:34:33;;;;;;;65.30;39.47;;;;;;;;;;5080336;28;20083;-75
2023/05/09 08:37:02;;;;;;;64.43;40.00;;;;;;;;;;5100456;27;20126;-77
2023/05/09 08:39:29;;;;;;;66.22;40.97;;;;;;;;;;5078917;28;20044;-76
2023/05/09 08:41:58;;;;;;;63.47;38.88;;;;;;;;;;5070505;28;20067;-76
2023/05/09 08:44:25;;;;;;;64.35;40.25;;;;;;;;;;5094601;27;20045;-76
2023/05/09 08:47:19;;;;;;;65.75;39.17;;;;;;;;;;5088759;28;20522;-75
2023/05/09 08:49:45;;;;;;;67.93;39.70;;;;;;;;;;5060782;28;20112;-78
2023/05/09 08:52:12;;;;;;;61.58;38.03;;;;;;;;;;5076895;28;20561;-77
2023/05/09 08:54:38;;;;;;;57.40;36.17;;;;;;;;;;5109405;27;20040;-76
2023/05/09 08:57:04;;;;;;;55.92;34.45;;;;;;;;;;5078264;28;20051;-75
2023/05/09 08:59:33;;;;;;;60.42;35.42;;;;;;;;;;5083474;28;20124;-77
2023/05/09 09:01:59;;;;;;;63.60;37.38;;;;;;;;;;5065763;28;20041;-75
2023/05/09 09:04:25;;;;;;;57.05;36.15;;;;;;;;;;5088561;27;20122;-75
2023/05/09 09:06:53;;;;;;;58.70;35.92;;;;;;;;;;5091235;28;20082;-75
2023/05/09 09:09:19;;;;;;;54.65;34.80;;;;;;;;;;5075115;28;20036;-76
2023/05/09 09:11:46;;;;;;;53.67;34.25;;;;;;;;;;5074587;28;20048;-76
2023/05/09 09:14:15;;;;;;;53.17;34.33;;;;;;;;;;5087905;28;20044;-75
2023/05/09 09:16:43;;;;;;;54.30;34.60;;;;;;;;;;5076185;28;20515;-77
2023/05/09 09:19:12;;;;;;;51.70;35.43;;;;;;;;;;5067362;28;20045;-76
2023/05/09 09:21:41;;;;;;;57.95;33.85;;;;;;;;;;5080978;28;20077;-74
2023/05/09 09:24:07;;;;;;;52.63;33.70;;;;;;;;;;5073400;28;20044;-76
2023/05/09 09:26:33;;;;;;;52.70;32.10;;;;;;;;;;5072758;28;20668;-76
2023/05/09 09:28:59;;;;;;;45.45;30.70;;;;;;;;;;5073945;28;20040;-75
2023/05/09 09:31:29;;;;;;;49.03;32.35;;;;;;;;;;5072068;28;20055;-78
2023/05/09 09:34:01;;;;;;;46.90;29.50;;;;;;;;;;5067098;28;20039;-78
2023/05/09 09:36:28;;;;;;;43.22;29.38;;;;;;;;;;5076388;28;20036;-79
2023/05/09 09:39:03;;;;;;;45.22;29.42;;;;;;;;;;5076549;28;20036;-79
2023/05/09 09:41:35;;;;;;;43.63;30.70;;;;;;;;;;5077460;28;20127;-76
2023/05/09 09:44:08;;;;;;;46.85;29.77;;;;;;;;;;5072935;28;20071;-78
2023/05/09 09:46:41;;;;;;;40.83;29.25;;;;;;;;;;5085465;28;20048;-78
2023/05/09 09:49:08;;;;;;;45.28;29.95;;;;;;;;;;5070513;28;20132;-79
2023/05/09 09:51:34;;;;;;;43.77;30.30;;;;;;;;;;5092313;28;20048;-79
2023/05/09 09:54:06;;;;;;;42.65;29.77;;;;;;;;;;5060249;28;20048;-77
2023/05/09 09:56:39;;;;;;;43.03;29.20;;;;;;;;;;5072993;28;20041;-77
2023/05/09 09:59:10;;;;;;;41.53;28.35;;;;;;;;;;5082076;28;20056;-78
2023/05/09 10:01:36;;;;;;;38.80;29.17;;;;;;;;;;5097484;27;20032;-78
2023/05/09 10:04:02;;;;;;;38.47;28.60;;;;;;;;;;5069562;28;20127;-79
2023/05/09 10:06:28;;;;;;;40.17;28.30;;;;;;;;;;5060246;28;20118;-78
2023/05/09 10:08:55;;;;;;;41.22;29.02;;;;;;;;;;5033814;28;20048;-77
2023/05/09 10:11:24;;;;;;;38.85;28.75;;;;;;;;;;5068642;28;20762;-77
2023/05/09 10:13:54;;;;;;;39.50;29.02;;;;;;;;;;5068239;28;20100;-76
2023/05/09 10:16:23;;;;;;;43.53;29.25;;;;;;;;;;5057245;28;20052;-75
2023/05/09 10:18:49;;;;;;;41.53;28.70;;;;;;;;;;5081521;28;20041;-75
2023/05/09 10:21:15;;;;;;;42.35;29.42;;;;;;;;;;5056724;28;20040;-75
2023/05/09 10:23:42;;;;;;;38.78;29.48;;;;;;;;;;5074590;28;20521;-75
2023/05/09 10:26:26;;;;;;;39.30;29.08;;;;;;;;;;5066684;28;20041;-75
2023/05/09 10:28:54;;;;;;;37.35;26.85;;;;;;;;;;5058834;28;20052;-79
2023/05/09 10:31:20;;;;;;;;;;;;;;;;;;5066151;28;20075;-78
2023/05/09 10:33:47;;;;;;;31.23;24.52;;;;;;;;;;5064719;28;20077;-79
2023/05/09 10:36:15;;;;;;;31.50;23.65;;;;;;;;;;5067162;28;20037;-79
2023/05/09 10:38:41;;;;;;;36.97;27.50;;;;;;;;;;5070421;28;20056;-79
2023/05/09 10:41:09;;;;;;;33.40;25.77;;;;;;;;;;5068747;28;20079;-83
2023/05/09 10:43:35;;;;;;;35.50;24.10;;;;;;;;;;5072039;28;20040;-81
2023/05/09 10:46:02;;;;;;;32.65;23.40;;;;;;;;;;5079218;28;21221;-79
2023/05/09 10:48:28;;;;;;;32.38;23.45;;;;;;;;;;5073187;28;20177;-79
2023/05/09 10:50:56;;;;;;;30.75;22.58;;;;;;;;;;5071900;28;20130;-75
2023/05/09 10:53:23;;;;;;;33.15;22.02;;;;;;;;;;5071191;28;20098;-76
2023/05/09 10:55:59;;;;;;;28.65;21.95;;;;;;;;;;5067339;28;20044;-76
2023/05/09 10:58:25;;;;;;;31.83;23.15;;;;;;;;;;5082569;27;20510;-76
2023/05/09 11:00:52;;;;;;;29.08;21.10;;;;;;;;;;5066593;28;20952;-76
2023/05/09 11:03:18;;;;;;;27.13;20.33;;;;;;;;;;5066893;28;20205;-76
2023/05/09 11:05:44;;;;;;;26.20;19.95;;;;;;;;;;5071854;28;20506;-76
2023/05/09 11:08:26;;;;;;;30.42;22.38;;;;;;;;;;5080345;28;20075;-76
2023/05/09 11:10:53;;;;;;;27.88;20.98;;;;;;;;;;5067427;28;20076;-76
2023/05/09 11:13:22;;;;;;;32.78;23.13;;;;;;;;;;5098810;27;20673;-77
2023/05/09 11:15:48;;;;;;;;;;;;;;;;;;5066868;28;20056;-77
2023/05/09 11:18:14;;;;;;;31.15;23.75;;;;;;;;;;5066481;28;19928;-76
2023/05/09 11:20:44;;;;;;;27.40;20.70;;;;;;;;;;5082669;28;20044;-77
2023/05/09 11:23:10;;;;;;;28.23;20.50;;;;;;;;;;5067958;28;20077;-78
2023/05/09 11:25:38;;;;;;;28.55;20.35;;;;;;;;;;5063204;28;20571;-77
2023/05/09 11:28:05;;;;;;;27.40;20.83;;;;;;;;;;5059443;28;20048;-78
2023/05/09 11:30:41;;;;;;;26.02;20.42;;;;;;;;;;5070199;28;20044;-77
2023/05/09 11:33:21;;;;;;;27.10;19.92;;;;;;;;;;5063408;28;20586;-77
2023/05/09 11:35:49;;;;;;;26.17;20.30;;;;;;;;;;5071050;28;20127;-77
2023/05/09 11:38:20;;;;;;;29.55;21.67;;;;;;;;;;5067787;28;20064;-77
2023/05/09 11:40:47;;;;;;;29.23;21.60;;;;;;;;;;5082468;27;20117;-77
2023/05/09 11:43:13;;;;;;;29.00;21.85;;;;;;;;;;5055988;28;20044;-77
2023/05/09 11:45:40;;;;;;;30.92;21.50;;;;;;;;;;5064681;28;20063;-76
2023/05/09 11:48:09;;;;;;;39.33;27.63;;;;;;;;;;5066020;28;20049;-76
2023/05/09 11:50:35;;;;;;;38.72;29.65;;;;;;;;;;5064853;28;20044;-76
2023/05/09 11:53:01;;;;;;;39.67;30.00;;;;;;;;;;5083565;27;20044;-77
2023/05/09 11:55:31;;;;;;;43.47;31.83;;;;;;;;;;5083866;28;20040;-77
2023/05/09 11:57:58;;;;;;;47.60;31.63;;;;;;;;;;5075918;28;20148;-77
2023/05/09 12:00:25;;;;;;;42.03;29.13;;;;;;;;;;5071754;28;20044;-77
2023/05/09 12:02:51;;;;;;;41.10;31.60;;;;;;;;;;5077164;28;20048;-77
2023/05/09 12:05:19;;;;;;;49.20;34.15;;;;;;;;;;5073259;28;20050;-76
2023/05/09 12:07:45;;;;;;;51.15;33.97;;;;;;;;;;5110650;27;20511;-77
2023/05/09 12:10:14;;;;;;;46.67;33.53;;;;;;;;;;5076990;28;20079;-77
2023/05/09 12:12:40;;;;;;;;;;;;;;;;;;5070077;28;20046;-76
2023/05/09 12:15:07;;;;;;;46.65;31.83;;;;;;;;;;5075913;28;20371;-77
2023/05/09 12:17:33;;;;;;;50.95;33.45;;;;;;;;;;5068213;28;20214;-77
2023/05/09 12:20:04;;;;;;;50.72;33.63;;;;;;;;;;5073824;28;20079;-77
2023/05/09 12:22:31;;;;;;;46.05;31.90;;;;;;;;;;5060759;28;20080;-78
2023/05/09 12:24:57;;;;;;;51.20;34.20;;;;;;;;;;5070900;28;20089;-76
2023/05/09 12:27:25;;;;;;;48.72;33.22;;;;;;;;;;5080069;28;20105;-76
2023/05/09 12:29:51;;;;;;;45.35;30.65;;;;;;;;;;5077152;28;20612;-77
2023/05/09 12:32:17;;;;;;;44.97;31.83;;;;;;;;;;5095346;27;20127;-77
2023/05/09 12:34:44;;;;;;;48.55;33.33;;;;;;;;;;5063017;28;20035;-77
2023/05/09 12:37:15;;;;;;;40.80;29.17;;;;;;;;;;5068133;28;20037;-77
2023/05/09 12:39:41;;;;;;;42.58;29.08;;;;;;;;;;5070998;28;20055;-78
2023/05/09 12:42:13;;;;;;;40.97;28.85;;;;;;;;;;5072548;28;20522;-77
2023/05/09 12:44:40;;;;;;;42.63;29.88;;;;;;;;;;5069581;28;20041;-78
2023/05/09 12:47:07;;;;;;;41.47;30.10;;;;;;;;;;5065807;28;20060;-76
2023/05/09 12:49:36;;;;;;;40.75;28.58;;;;;;;;;;5087243;27;20461;-77
2023/05/09 12:52:02;;;;;;;39.33;28.95;;;;;;;;;;5075390;28;20074;-77
2023/05/09 12:54:29;;;;;;;57.83;36.13;;;;;;;;;;5070070;28;20048;-77
2023/05/09 12:56:56;;;;;;;53.03;34.45;;;;;;;;;;5073920;28;20309;-76
2023/05/09 12:59:29;;;;;;;52.30;33.90;;;;;;;;;;5077434;28;20059;-76
2023/05/09 13:02:00;;;;;;;55.17;34.10;;;;;;;;;;5075289;28;20060;-76
2023/05/09 13:04:27;;;;;;;49.65;33.42;;;;;;;;;;5076440;28;20052;-77
2023/05/09 13:06:57;;;;;;;52.42;34.88;;;;;;;;;;5059084;28;20101;-78
2023/05/09 13:09:24;;;;;;;52.05;34.22;;;;;;;;;;5056121;28;20044;-76
2023/05/09 13:11:51;;;;;;;55.72;36.45;;;;;;;;;;5047182;28;20041;-77
2023/05/09 13:14:19;;;;;;;55.95;35.60;;;;;;;;;;5062281;28;20053;-77
2023/05/09 13:16:45;;;;;;;56.33;36.00;;;;;;;;;;5065203;28;21142;-77
2023/05/09 13:19:11;;;;;;;61.55;37.42;;;;;;;;;;5074593;28;20044;-77
2023/05/09 13:21:38;;;;;;;80.40;41.85;;;;;;;;;;5061595;28;20059;-76
2023/05/09 13:24:04;;;;;;;75.60;43.58;;;;;;;;;;5073053;28;20046;-77
2023/05/09 13:26:30;;;;;;;76.18;45.70;;;;;;;;;;5103778;27;20111;-78
2023/05/09 13:28:57;;;;;;;77.57;46.28;;;;;;;;;;5063764;28;20055;-77
2023/05/09 13:31:23;;;;;;;87.95;47.47;;;;;;;;;;5068951;28;20078;-77
2023/05/09 13:33:49;;;;;;;89.63;49.10;;;;;;;;;;5077995;28;20052;-76
2023/05/09 13:36:15;;;;;;;86.85;51.03;;;;;;;;;;5098468;27;20048;-77
2023/05/09 13:38:41;;;;;;;95.70;52.15;;;;;;;;;;5058656;28;20055;-77
2023/05/09 13:41:08;;;;;;;98.57;55.47;;;;;;;;;;5069793;28;20091;-76
2023/05/09 13:43:34;;;;;;;107.40;58.38;;;;;;;;;;5060741;28;20167;-77
2023/05/09 13:46:00;;;;;;;102.00;57.35;;;;;;;;;;5064080;28;20139;-76
2023/05/09 13:48:26;;;;;;;105.20;56.85;;;;;;;;;;5064207;28;20101;-77
2023/05/09 13:50:52;;;;;;;120.47;62.10;;;;;;;;;;5065224;28;20048;-76
2023/05/09 13:53:18;;;;;;;147.10;63.67;;;;;;;;;;5065334;28;20040;-75
2023/05/09 13:55:45;;;;;;;139.90;54.13;;;;;;;;;;5062710;28;20126;-76
2023/05/09 13:58:11;;;;;;;44.92;28.63;;;;;;;;;;5049868;28;20075;-76
2023/05/09 14:00:37;;;;;;;47.63;27.90;;;;;;;;;;5059342;28;20139;-76
2023/05/09 14:03:04;;;;;;;49.42;28.92;;;;;;;;;;5067938;28;20073;-76
2023/05/09 14:05:33;;;;;;;60.10;35.33;;;;;;;;;;5078903;28;20037;-77
2023/05/09 14:08:00;;;;;;;53.72;32.47;;;;;;;;;;5048526;28;20045;-76
2023/05/09 14:10:26;;;;;;;68.10;38.20;;;;;;;;;;5065326;28;20055;-75
2023/05/09 14:12:53;;;;;;;59.10;38.42;;;;;;;;;;5068140;28;20053;-75
2023/05/09 14:15:19;;;;;;;45.72;31.83;;;;;;;;;;5083704;28;20044;-76